sensor_id;sensor_type;location;lat;lon;timestamp;P1;durP1;ratioP1;P2;durP2;ratioP2
49392;SDS011;35268;42.642;23.308;2022-09-17T00:00:32;8.80;;;2.10;;
49392;SDS011;35268;42.642;23.308;2022-09-17T00:02:57;6.68;;;3.10;;
49392;SDS011;35268;42.642;23.308;2022-09-17T00:05:23;9.52;;;2.67;;
49392;SDS011;35268;42.642;23.308;2022-09-17T00:07:49;11.10;;;2.55;;
49392;SDS011;35268;42.642;23.308;2022-09-17T00:10:16;11.27;;;2.67;;
49392;SDS011;35268;42.642;23.308;2022-09-17T00:12:43;20.70;;;2.63;;
49392;SDS011;35268;42.642;23.308;2022-09-17T00:15:09;7.53;;;2.55;;
49392;SDS011;35268;42.642;23.308;2022-09-17T00:17:35;7.57;;;2.55;;
49392;SDS011;35268;42.642;23.308;2022-09-17T00:20:00;3.58;;;2.05;;
49392;SDS011;35268;42.642;23.308;2022-09-17T00:22:26;9.65;;;2.15;;
49392;SDS011;35268;42.642;23.308;2022-09-17T00:24:52;6.20;;;1.83;;
49392;SDS011;35268;42.642;23.308;2022-09-17T00:27:17;7.40;;;2.17;;
49392;SDS011;35268;42.642;23.308;2022-09-17T00:29:43;7.70;;;2.22;;
49392;SDS011;35268;42.642;23.308;2022-09-17T00:32:08;10.32;;;2.40;;
49392;SDS011;35268;42.642;23.308;2022-09-17T00:34:34;13.23;;;2.08;;
49392;SDS011;35268;42.642;23.308;2022-09-17T00:36:59;8.88;;;2.47;;
49392;SDS011;35268;42.642;23.308;2022-09-17T00:39:25;5.43;;;2.10;;
49392;SDS011;35268;42.642;23.308;2022-09-17T00:41:51;7.43;;;2.90;;
49392;SDS011;35268;42.642;23.308;2022-09-17T00:47:28;9.35;;;2.55;;
49392;SDS011;35268;42.642;23.308;2022-09-17T00:52:56;12.65;;;3.78;;
49392;SDS011;35268;42.642;23.308;2022-09-17T00:57:56;8.23;;;3.85;;
49392;SDS011;35268;42.642;23.308;2022-09-17T01:00:23;8.75;;;3.58;;
49392;SDS011;35268;42.642;23.308;2022-09-17T01:02:50;15.23;;;4.03;;
49392;SDS011;35268;42.642;23.308;2022-09-17T01:05:17;8.93;;;3.60;;
49392;SDS011;35268;42.642;23.308;2022-09-17T01:13:20;11.23;;;3.97;;
49392;SDS011;35268;42.642;23.308;2022-09-17T01:18:46;12.43;;;4.50;;
49392;SDS011;35268;42.642;23.308;2022-09-17T01:32:45;11.70;;;4.75;;
49392;SDS011;35268;42.642;23.308;2022-09-17T01:35:19;11.95;;;4.93;;
49392;SDS011;35268;42.642;23.308;2022-09-17T01:40:35;18.10;;;6.38;;
49392;SDS011;35268;42.642;23.308;2022-09-17T01:43:09;13.45;;;7.10;;
49392;SDS011;35268;42.642;23.308;2022-09-17T01:45:48;16.45;;;6.70;;
49392;SDS011;35268;42.642;23.308;2022-09-17T01:48:20;11.40;;;6.05;;
49392;SDS011;35268;42.642;23.308;2022-09-17T01:50:56;13.27;;;7.00;;
49392;SDS011;35268;42.642;23.308;2022-09-17T01:53:37;15.98;;;6.72;;
49392;SDS011;35268;42.642;23.308;2022-09-17T01:56:09;16.30;;;6.57;;
49392;SDS011;35268;42.642;23.308;2022-09-17T01:58:43;21.48;;;6.20;;
49392;SDS011;35268;42.642;23.308;2022-09-17T02:01:15;14.25;;;6.43;;
49392;SDS011;35268;42.642;23.308;2022-09-17T02:03:55;13.57;;;6.53;;
49392;SDS011;35268;42.642;23.308;2022-09-17T02:06:30;14.43;;;6.07;;
49392;SDS011;35268;42.642;23.308;2022-09-17T02:09:04;10.43;;;5.55;;
49392;SDS011;35268;42.642;23.308;2022-09-17T02:11:37;17.38;;;6.40;;
49392;SDS011;35268;42.642;23.308;2022-09-17T02:14:07;17.23;;;6.97;;
49392;SDS011;35268;42.642;23.308;2022-09-17T02:16:38;13.80;;;6.30;;
49392;SDS011;35268;42.642;23.308;2022-09-17T02:19:23;10.10;;;5.57;;
49392;SDS011;35268;42.642;23.308;2022-09-17T02:30:24;15.02;;;3.03;;
49392;SDS011;35268;42.642;23.308;2022-09-17T02:32:49;6.53;;;2.50;;
49392;SDS011;35268;42.642;23.308;2022-09-17T02:35:15;9.52;;;2.45;;
49392;SDS011;35268;42.642;23.308;2022-09-17T02:37:41;5.82;;;2.72;;
49392;SDS011;35268;42.642;23.308;2022-09-17T02:40:08;14.77;;;4.70;;
49392;SDS011;35268;42.642;23.308;2022-09-17T02:45:34;8.00;;;4.10;;
49392;SDS011;35268;42.642;23.308;2022-09-17T02:57:08;14.18;;;5.45;;
49392;SDS011;35268;42.642;23.308;2022-09-17T03:02:58;14.48;;;5.25;;
49392;SDS011;35268;42.642;23.308;2022-09-17T03:05:30;16.17;;;5.80;;
49392;SDS011;35268;42.642;23.308;2022-09-17T03:07:58;13.68;;;4.60;;
49392;SDS011;35268;42.642;23.308;2022-09-17T03:10:24;13.00;;;4.18;;
49392;SDS011;35268;42.642;23.308;2022-09-17T03:12:54;15.48;;;4.88;;
49392;SDS011;35268;42.642;23.308;2022-09-17T03:15:20;10.95;;;4.75;;
49392;SDS011;35268;42.642;23.308;2022-09-17T03:17:45;11.52;;;4.78;;
49392;SDS011;35268;42.642;23.308;2022-09-17T03:20:11;10.05;;;4.60;;
49392;SDS011;35268;42.642;23.308;2022-09-17T03:22:39;12.43;;;4.78;;
49392;SDS011;35268;42.642;23.308;2022-09-17T03:25:05;16.70;;;4.93;;
49392;SDS011;35268;42.642;23.308;2022-09-17T03:27:31;13.40;;;5.45;;
49392;SDS011;35268;42.642;23.308;2022-09-17T03:29:57;8.57;;;4.72;;
49392;SDS011;35268;42.642;23.308;2022-09-17T03:32:23;11.40;;;4.75;;
49392;SDS011;35268;42.642;23.308;2022-09-17T03:34:48;11.40;;;3.50;;
49392;SDS011;35268;42.642;23.308;2022-09-17T03:37:14;7.10;;;3.03;;
49392;SDS011;35268;42.642;23.308;2022-09-17T03:39:39;4.22;;;2.67;;
49392;SDS011;35268;42.642;23.308;2022-09-17T03:42:05;4.80;;;2.53;;
49392;SDS011;35268;42.642;23.308;2022-09-17T03:44:30;10.90;;;2.58;;
49392;SDS011;35268;42.642;23.308;2022-09-17T03:46:56;8.05;;;2.90;;
49392;SDS011;35268;42.642;23.308;2022-09-17T03:49:21;11.38;;;2.90;;
49392;SDS011;35268;42.642;23.308;2022-09-17T03:51:48;8.73;;;2.40;;
49392;SDS011;35268;42.642;23.308;2022-09-17T03:54:13;5.50;;;2.22;;
49392;SDS011;35268;42.642;23.308;2022-09-17T03:56:41;13.20;;;2.47;;
49392;SDS011;35268;42.642;23.308;2022-09-17T03:59:07;8.68;;;2.28;;
49392;SDS011;35268;42.642;23.308;2022-09-17T04:01:33;6.30;;;1.83;;
49392;SDS011;35268;42.642;23.308;2022-09-17T04:04:00;7.25;;;2.60;;
49392;SDS011;35268;42.642;23.308;2022-09-17T04:06:26;8.45;;;2.20;;
49392;SDS011;35268;42.642;23.308;2022-09-17T04:08:52;6.65;;;2.58;;
49392;SDS011;35268;42.642;23.308;2022-09-17T04:11:17;8.63;;;2.60;;
49392;SDS011;35268;42.642;23.308;2022-09-17T04:13:43;6.63;;;2.35;;
49392;SDS011;35268;42.642;23.308;2022-09-17T04:16:08;7.80;;;2.13;;
49392;SDS011;35268;42.642;23.308;2022-09-17T04:18:33;9.07;;;2.25;;
49392;SDS011;35268;42.642;23.308;2022-09-17T04:20:59;9.27;;;2.20;;
49392;SDS011;35268;42.642;23.308;2022-09-17T04:23:24;7.47;;;2.20;;
49392;SDS011;35268;42.642;23.308;2022-09-17T04:25:50;9.00;;;2.08;;
49392;SDS011;35268;42.642;23.308;2022-09-17T04:28:15;8.95;;;2.38;;
49392;SDS011;35268;42.642;23.308;2022-09-17T04:30:41;14.13;;;2.78;;
49392;SDS011;35268;42.642;23.308;2022-09-17T04:33:09;6.90;;;2.00;;
49392;SDS011;35268;42.642;23.308;2022-09-17T04:35:35;8.55;;;2.42;;
49392;SDS011;35268;42.642;23.308;2022-09-17T04:38:00;15.68;;;3.92;;
49392;SDS011;35268;42.642;23.308;2022-09-17T04:40:29;5.95;;;2.50;;
49392;SDS011;35268;42.642;23.308;2022-09-17T04:42:55;9.35;;;3.38;;
49392;SDS011;35268;42.642;23.308;2022-09-17T04:45:27;7.90;;;2.42;;
49392;SDS011;35268;42.642;23.308;2022-09-17T04:47:53;8.57;;;2.78;;
49392;SDS011;35268;42.642;23.308;2022-09-17T04:50:20;6.45;;;2.78;;
49392;SDS011;35268;42.642;23.308;2022-09-17T04:52:46;7.82;;;3.13;;
49392;SDS011;35268;42.642;23.308;2022-09-17T04:55:13;15.20;;;3.70;;
49392;SDS011;35268;42.642;23.308;2022-09-17T04:57:44;9.30;;;4.03;;
49392;SDS011;35268;42.642;23.308;2022-09-17T05:00:13;10.88;;;3.58;;
49392;SDS011;35268;42.642;23.308;2022-09-17T05:02:40;14.68;;;4.20;;
49392;SDS011;35268;42.642;23.308;2022-09-17T05:05:07;7.38;;;2.60;;
49392;SDS011;35268;42.642;23.308;2022-09-17T05:07:33;14.82;;;2.03;;
49392;SDS011;35268;42.642;23.308;2022-09-17T05:09:58;13.43;;;2.42;;
49392;SDS011;35268;42.642;23.308;2022-09-17T05:12:23;11.75;;;1.90;;
49392;SDS011;35268;42.642;23.308;2022-09-17T05:14:49;7.07;;;1.95;;
49392;SDS011;35268;42.642;23.308;2022-09-17T05:17:15;7.20;;;2.17;;
49392;SDS011;35268;42.642;23.308;2022-09-17T05:19:40;12.60;;;3.00;;
49392;SDS011;35268;42.642;23.308;2022-09-17T05:22:05;9.50;;;3.17;;
49392;SDS011;35268;42.642;23.308;2022-09-17T05:24:31;9.48;;;3.72;;
49392;SDS011;35268;42.642;23.308;2022-09-17T05:26:57;7.78;;;3.33;;
49392;SDS011;35268;42.642;23.308;2022-09-17T05:29:23;16.95;;;5.22;;
49392;SDS011;35268;42.642;23.308;2022-09-17T05:31:48;10.65;;;3.30;;
49392;SDS011;35268;42.642;23.308;2022-09-17T05:34:14;16.33;;;3.88;;
49392;SDS011;35268;42.642;23.308;2022-09-17T05:36:39;6.15;;;2.47;;
49392;SDS011;35268;42.642;23.308;2022-09-17T05:39:04;13.52;;;3.17;;
49392;SDS011;35268;42.642;23.308;2022-09-17T05:41:30;9.60;;;1.92;;
49392;SDS011;35268;42.642;23.308;2022-09-17T05:43:55;5.78;;;1.40;;
49392;SDS011;35268;42.642;23.308;2022-09-17T05:46:21;9.68;;;1.23;;
49392;SDS011;35268;42.642;23.308;2022-09-17T05:48:47;5.10;;;1.10;;
49392;SDS011;35268;42.642;23.308;2022-09-17T05:51:12;6.63;;;1.00;;
49392;SDS011;35268;42.642;23.308;2022-09-17T05:53:38;3.90;;;0.85;;
49392;SDS011;35268;42.642;23.308;2022-09-17T05:56:03;5.38;;;0.98;;
49392;SDS011;35268;42.642;23.308;2022-09-17T05:58:29;3.50;;;0.90;;
49392;SDS011;35268;42.642;23.308;2022-09-17T06:00:55;4.50;;;1.05;;
49392;SDS011;35268;42.642;23.308;2022-09-17T06:03:24;1.90;;;1.05;;
49392;SDS011;35268;42.642;23.308;2022-09-17T06:05:51;4.65;;;1.40;;
49392;SDS011;35268;42.642;23.308;2022-09-17T06:08:18;5.18;;;1.17;;
49392;SDS011;35268;42.642;23.308;2022-09-17T06:10:44;5.72;;;1.80;;
49392;SDS011;35268;42.642;23.308;2022-09-17T06:13:09;15.38;;;1.42;;
49392;SDS011;35268;42.642;23.308;2022-09-17T06:15:37;3.70;;;1.13;;
49392;SDS011;35268;42.642;23.308;2022-09-17T06:18:03;5.07;;;0.90;;
49392;SDS011;35268;42.642;23.308;2022-09-17T06:20:28;4.90;;;1.00;;
49392;SDS011;35268;42.642;23.308;2022-09-17T06:22:57;4.43;;;0.80;;
49392;SDS011;35268;42.642;23.308;2022-09-17T06:25:22;2.63;;;0.80;;
49392;SDS011;35268;42.642;23.308;2022-09-17T06:27:48;13.00;;;3.13;;
49392;SDS011;35268;42.642;23.308;2022-09-17T06:30:14;10.50;;;2.75;;
49392;SDS011;35268;42.642;23.308;2022-09-17T06:32:39;10.85;;;3.20;;
49392;SDS011;35268;42.642;23.308;2022-09-17T06:35:05;18.98;;;3.85;;
49392;SDS011;35268;42.642;23.308;2022-09-17T06:37:31;11.73;;;3.75;;
49392;SDS011;35268;42.642;23.308;2022-09-17T06:39:57;12.25;;;3.13;;
49392;SDS011;35268;42.642;23.308;2022-09-17T06:42:26;7.30;;;2.85;;
49392;SDS011;35268;42.642;23.308;2022-09-17T06:45:01;16.48;;;2.53;;
49392;SDS011;35268;42.642;23.308;2022-09-17T06:47:27;7.10;;;2.00;;
49392;SDS011;35268;42.642;23.308;2022-09-17T06:49:53;11.75;;;2.03;;
49392;SDS011;35268;42.642;23.308;2022-09-17T06:52:21;9.60;;;2.35;;
49392;SDS011;35268;42.642;23.308;2022-09-17T06:54:46;11.60;;;3.17;;
49392;SDS011;35268;42.642;23.308;2022-09-17T06:57:12;10.65;;;4.15;;
49392;SDS011;35268;42.642;23.308;2022-09-17T06:59:37;12.90;;;5.97;;
49392;SDS011;35268;42.642;23.308;2022-09-17T07:02:02;23.33;;;7.13;;
49392;SDS011;35268;42.642;23.308;2022-09-17T07:04:28;14.20;;;5.93;;
49392;SDS011;35268;42.642;23.308;2022-09-17T07:06:56;12.27;;;4.53;;
49392;SDS011;35268;42.642;23.308;2022-09-17T07:09:21;18.70;;;4.85;;
49392;SDS011;35268;42.642;23.308;2022-09-17T07:11:47;9.23;;;4.22;;
49392;SDS011;35268;42.642;23.308;2022-09-17T07:14:12;17.35;;;5.53;;
49392;SDS011;35268;42.642;23.308;2022-09-17T07:16:38;13.32;;;4.93;;
49392;SDS011;35268;42.642;23.308;2022-09-17T07:19:03;15.40;;;5.53;;
49392;SDS011;35268;42.642;23.308;2022-09-17T07:21:32;12.15;;;4.05;;
49392;SDS011;35268;42.642;23.308;2022-09-17T07:23:58;20.88;;;5.70;;
49392;SDS011;35268;42.642;23.308;2022-09-17T07:26:23;20.38;;;4.45;;
49392;SDS011;35268;42.642;23.308;2022-09-17T07:28:49;9.88;;;4.32;;
49392;SDS011;35268;42.642;23.308;2022-09-17T07:31:14;16.13;;;3.55;;
49392;SDS011;35268;42.642;23.308;2022-09-17T07:33:40;11.13;;;3.72;;
49392;SDS011;35268;42.642;23.308;2022-09-17T07:36:07;8.25;;;2.88;;
49392;SDS011;35268;42.642;23.308;2022-09-17T07:38:34;10.25;;;2.97;;
49392;SDS011;35268;42.642;23.308;2022-09-17T07:41:00;13.82;;;3.80;;
49392;SDS011;35268;42.642;23.308;2022-09-17T07:43:28;10.82;;;3.22;;
49392;SDS011;35268;42.642;23.308;2022-09-17T07:45:58;6.60;;;3.05;;
49392;SDS011;35268;42.642;23.308;2022-09-17T07:48:25;18.15;;;3.88;;
49392;SDS011;35268;42.642;23.308;2022-09-17T07:50:51;9.63;;;2.88;;
49392;SDS011;35268;42.642;23.308;2022-09-17T07:53:16;13.07;;;4.07;;
49392;SDS011;35268;42.642;23.308;2022-09-17T07:55:45;12.13;;;3.33;;
49392;SDS011;35268;42.642;23.308;2022-09-17T07:58:19;7.43;;;2.72;;
49392;SDS011;35268;42.642;23.308;2022-09-17T08:00:45;20.52;;;4.80;;
49392;SDS011;35268;42.642;23.308;2022-09-17T08:03:11;9.38;;;3.72;;
49392;SDS011;35268;42.642;23.308;2022-09-17T08:05:37;15.32;;;3.78;;
49392;SDS011;35268;42.642;23.308;2022-09-17T08:08:02;12.45;;;3.70;;
49392;SDS011;35268;42.642;23.308;2022-09-17T08:10:28;8.70;;;4.30;;
49392;SDS011;35268;42.642;23.308;2022-09-17T08:12:54;13.23;;;4.35;;
49392;SDS011;35268;42.642;23.308;2022-09-17T08:15:21;18.90;;;3.72;;
49392;SDS011;35268;42.642;23.308;2022-09-17T08:17:47;10.25;;;3.95;;
49392;SDS011;35268;42.642;23.308;2022-09-17T08:20:13;16.23;;;3.90;;
49392;SDS011;35268;42.642;23.308;2022-09-17T08:22:39;21.77;;;4.60;;
49392;SDS011;35268;42.642;23.308;2022-09-17T08:25:06;13.95;;;3.90;;
49392;SDS011;35268;42.642;23.308;2022-09-17T08:27:32;13.80;;;3.42;;
49392;SDS011;35268;42.642;23.308;2022-09-17T08:29:57;8.98;;;2.85;;
49392;SDS011;35268;42.642;23.308;2022-09-17T08:32:23;10.65;;;2.40;;
49392;SDS011;35268;42.642;23.308;2022-09-17T08:34:49;11.20;;;2.40;;
49392;SDS011;35268;42.642;23.308;2022-09-17T08:37:14;8.48;;;2.50;;
49392;SDS011;35268;42.642;23.308;2022-09-17T08:39:40;7.93;;;2.45;;
49392;SDS011;35268;42.642;23.308;2022-09-17T08:42:11;12.35;;;3.13;;
49392;SDS011;35268;42.642;23.308;2022-09-17T08:44:45;7.78;;;2.40;;
49392;SDS011;35268;42.642;23.308;2022-09-17T08:47:18;9.50;;;3.17;;
49392;SDS011;35268;42.642;23.308;2022-09-17T08:49:54;8.30;;;2.83;;
49392;SDS011;35268;42.642;23.308;2022-09-17T08:58:04;7.15;;;2.15;;
49392;SDS011;35268;42.642;23.308;2022-09-17T09:00:47;7.07;;;2.30;;
49392;SDS011;35268;42.642;23.308;2022-09-17T09:03:26;7.38;;;2.08;;
49392;SDS011;35268;42.642;23.308;2022-09-17T09:06:11;14.15;;;2.00;;
49392;SDS011;35268;42.642;23.308;2022-09-17T09:08:43;10.85;;;2.58;;
49392;SDS011;35268;42.642;23.308;2022-09-17T09:11:40;8.95;;;2.60;;
49392;SDS011;35268;42.642;23.308;2022-09-17T09:17:03;9.30;;;2.72;;
49392;SDS011;35268;42.642;23.308;2022-09-17T09:19:33;9.65;;;3.17;;
49392;SDS011;35268;42.642;23.308;2022-09-17T09:24:39;11.13;;;2.67;;
49392;SDS011;35268;42.642;23.308;2022-09-17T09:27:28;8.82;;;2.35;;
49392;SDS011;35268;42.642;23.308;2022-09-17T09:35:14;5.88;;;2.53;;
49392;SDS011;35268;42.642;23.308;2022-09-17T09:37:43;12.43;;;3.35;;
49392;SDS011;35268;42.642;23.308;2022-09-17T09:43:13;9.35;;;3.70;;
49392;SDS011;35268;42.642;23.308;2022-09-17T09:54:17;13.07;;;4.40;;
49392;SDS011;35268;42.642;23.308;2022-09-17T09:56:48;15.80;;;4.27;;
49392;SDS011;35268;42.642;23.308;2022-09-17T09:59:17;14.65;;;3.53;;
49392;SDS011;35268;42.642;23.308;2022-09-17T10:01:43;8.95;;;3.67;;
49392;SDS011;35268;42.642;23.308;2022-09-17T10:07:02;18.73;;;4.45;;
49392;SDS011;35268;42.642;23.308;2022-09-17T10:09:30;16.83;;;5.30;;
49392;SDS011;35268;42.642;23.308;2022-09-17T10:11:59;15.40;;;4.65;;
49392;SDS011;35268;42.642;23.308;2022-09-17T10:14:25;13.40;;;4.32;;
49392;SDS011;35268;42.642;23.308;2022-09-17T10:19:45;15.20;;;4.40;;
49392;SDS011;35268;42.642;23.308;2022-09-17T10:22:38;10.85;;;3.40;;
49392;SDS011;35268;42.642;23.308;2022-09-17T10:25:22;8.02;;;2.90;;
49392;SDS011;35268;42.642;23.308;2022-09-17T10:27:52;13.18;;;3.17;;
49392;SDS011;35268;42.642;23.308;2022-09-17T10:30:19;12.63;;;3.33;;
49392;SDS011;35268;42.642;23.308;2022-09-17T10:33:09;9.88;;;3.22;;
49392;SDS011;35268;42.642;23.308;2022-09-17T10:36:03;8.10;;;3.17;;
49392;SDS011;35268;42.642;23.308;2022-09-17T10:41:10;11.30;;;3.50;;
49392;SDS011;35268;42.642;23.308;2022-09-17T10:43:37;3.75;;;1.95;;
49392;SDS011;35268;42.642;23.308;2022-09-17T10:46:03;12.80;;;2.65;;
49392;SDS011;35268;42.642;23.308;2022-09-17T10:48:30;10.43;;;3.03;;
49392;SDS011;35268;42.642;23.308;2022-09-17T10:51:01;13.60;;;2.83;;
49392;SDS011;35268;42.642;23.308;2022-09-17T10:53:27;11.30;;;2.95;;
49392;SDS011;35268;42.642;23.308;2022-09-17T11:31:33;6.38;;;2.63;;
49392;SDS011;35268;42.642;23.308;2022-09-17T11:34:24;10.20;;;3.28;;
49392;SDS011;35268;42.642;23.308;2022-09-17T11:39:48;12.23;;;3.33;;
49392;SDS011;35268;42.642;23.308;2022-09-17T11:42:26;7.85;;;2.65;;
49392;SDS011;35268;42.642;23.308;2022-09-17T11:45:00;6.80;;;2.83;;
49392;SDS011;35268;42.642;23.308;2022-09-17T11:47:32;7.13;;;2.90;;
49392;SDS011;35268;42.642;23.308;2022-09-17T11:50:22;7.55;;;2.97;;
49392;SDS011;35268;42.642;23.308;2022-09-17T11:53:27;7.05;;;2.30;;
49392;SDS011;35268;42.642;23.308;2022-09-17T11:58:31;4.60;;;2.40;;
49392;SDS011;35268;42.642;23.308;2022-09-17T12:01:09;7.03;;;2.35;;
49392;SDS011;35268;42.642;23.308;2022-09-17T12:03:42;6.78;;;2.17;;
49392;SDS011;35268;42.642;23.308;2022-09-17T12:06:21;5.13;;;1.35;;
49392;SDS011;35268;42.642;23.308;2022-09-17T12:09:15;1.50;;;0.43;;
49392;SDS011;35268;42.642;23.308;2022-09-17T12:11:46;1.92;;;0.52;;
49392;SDS011;35268;42.642;23.308;2022-09-17T12:14:23;2.72;;;0.90;;
49392;SDS011;35268;42.642;23.308;2022-09-17T12:16:56;6.93;;;0.82;;
49392;SDS011;35268;42.642;23.308;2022-09-17T12:19:34;2.72;;;0.65;;
49392;SDS011;35268;42.642;23.308;2022-09-17T12:24:32;2.42;;;0.73;;
49392;SDS011;35268;42.642;23.308;2022-09-17T12:27:19;7.03;;;1.55;;
49392;SDS011;35268;42.642;23.308;2022-09-17T12:46:44;3.58;;;0.50;;
49392;SDS011;35268;42.642;23.308;2022-09-17T12:55:16;2.10;;;0.60;;
49392;SDS011;35268;42.642;23.308;2022-09-17T12:57:53;0.60;;;0.40;;
49392;SDS011;35268;42.642;23.308;2022-09-17T13:00:48;5.68;;;0.70;;
49392;SDS011;35268;42.642;23.308;2022-09-17T13:03:32;5.38;;;0.40;;
49392;SDS011;35268;42.642;23.308;2022-09-17T13:06:13;2.05;;;0.80;;
49392;SDS011;35268;42.642;23.308;2022-09-17T13:08:57;3.35;;;0.50;;
49392;SDS011;35268;42.642;23.308;2022-09-17T13:14:16;1.58;;;0.40;;
49392;SDS011;35268;42.642;23.308;2022-09-17T13:16:55;1.17;;;0.35;;
49392;SDS011;35268;42.642;23.308;2022-09-17T13:22:20;0.88;;;0.30;;
49392;SDS011;35268;42.642;23.308;2022-09-17T13:25:04;3.35;;;0.80;;
49392;SDS011;35268;42.642;23.308;2022-09-17T13:30:06;1.10;;;0.40;;
49392;SDS011;35268;42.642;23.308;2022-09-17T13:37:36;2.72;;;0.60;;
49392;SDS011;35268;42.642;23.308;2022-09-17T13:40:03;0.52;;;0.20;;
49392;SDS011;35268;42.642;23.308;2022-09-17T13:42:44;1.20;;;0.75;;
49392;SDS011;35268;42.642;23.308;2022-09-17T13:45:12;0.73;;;0.38;;
49392;SDS011;35268;42.642;23.308;2022-09-17T13:48:01;2.25;;;0.60;;
49392;SDS011;35268;42.642;23.308;2022-09-17T14:08:51;2.38;;;0.43;;
49392;SDS011;35268;42.642;23.308;2022-09-17T14:35:43;5.28;;;1.65;;
49392;SDS011;35268;42.642;23.308;2022-09-17T14:41:15;8.07;;;1.67;;
49392;SDS011;35268;42.642;23.308;2022-09-17T14:44:04;5.90;;;1.70;;
49392;SDS011;35268;42.642;23.308;2022-09-17T14:47:06;9.07;;;2.90;;
49392;SDS011;35268;42.642;23.308;2022-09-17T14:49:31;3.53;;;1.60;;
49392;SDS011;35268;42.642;23.308;2022-09-17T14:54:26;6.60;;;1.52;;
49392;SDS011;35268;42.642;23.308;2022-09-17T14:56:54;9.73;;;1.90;;
49392;SDS011;35268;42.642;23.308;2022-09-17T15:01:48;5.93;;;1.73;;
49392;SDS011;35268;42.642;23.308;2022-09-17T15:06:39;4.65;;;1.30;;
49392;SDS011;35268;42.642;23.308;2022-09-17T15:09:13;3.20;;;1.50;;
49392;SDS011;35268;42.642;23.308;2022-09-17T15:11:43;5.65;;;1.40;;
49392;SDS011;35268;42.642;23.308;2022-09-17T15:14:17;4.70;;;1.75;;
49392;SDS011;35268;42.642;23.308;2022-09-17T15:16:51;7.70;;;1.83;;
49392;SDS011;35268;42.642;23.308;2022-09-17T15:19:26;9.52;;;1.90;;
49392;SDS011;35268;42.642;23.308;2022-09-17T15:21:57;3.83;;;1.70;;
49392;SDS011;35268;42.642;23.308;2022-09-17T15:27:16;9.07;;;2.22;;
49392;SDS011;35268;42.642;23.308;2022-09-17T15:29:49;6.38;;;1.73;;
49392;SDS011;35268;42.642;23.308;2022-09-17T15:32:18;6.20;;;2.15;;
49392;SDS011;35268;42.642;23.308;2022-09-17T15:34:44;4.93;;;1.83;;
49392;SDS011;35268;42.642;23.308;2022-09-17T15:39:42;4.07;;;2.15;;
49392;SDS011;35268;42.642;23.308;2022-09-17T15:42:29;7.53;;;2.42;;
49392;SDS011;35268;42.642;23.308;2022-09-17T15:50:24;4.35;;;2.00;;
49392;SDS011;35268;42.642;23.308;2022-09-17T15:53:49;3.50;;;2.22;;
49392;SDS011;35268;42.642;23.308;2022-09-17T15:56:23;7.35;;;1.52;;
49392;SDS011;35268;42.642;23.308;2022-09-17T16:08:47;4.80;;;1.70;;
49392;SDS011;35268;42.642;23.308;2022-09-17T16:11:18;5.40;;;1.90;;
49392;SDS011;35268;42.642;23.308;2022-09-17T16:13:48;6.22;;;2.25;;
49392;SDS011;35268;42.642;23.308;2022-09-17T16:16:15;5.43;;;2.00;;
49392;SDS011;35268;42.642;23.308;2022-09-17T16:18:42;2.78;;;1.30;;
49392;SDS011;35268;42.642;23.308;2022-09-17T16:21:09;8.95;;;2.38;;
49392;SDS011;35268;42.642;23.308;2022-09-17T16:23:35;6.20;;;1.80;;
49392;SDS011;35268;42.642;23.308;2022-09-17T16:26:01;4.47;;;2.03;;
49392;SDS011;35268;42.642;23.308;2022-09-17T16:28:27;4.47;;;2.28;;
49392;SDS011;35268;42.642;23.308;2022-09-17T16:30:54;7.45;;;1.98;;
49392;SDS011;35268;42.642;23.308;2022-09-17T16:33:19;7.95;;;1.67;;
49392;SDS011;35268;42.642;23.308;2022-09-17T16:35:45;4.72;;;1.95;;
49392;SDS011;35268;42.642;23.308;2022-09-17T16:38:10;5.30;;;1.92;;
49392;SDS011;35268;42.642;23.308;2022-09-17T16:40:40;9.68;;;2.47;;
49392;SDS011;35268;42.642;23.308;2022-09-17T16:43:07;7.07;;;2.50;;
49392;SDS011;35268;42.642;23.308;2022-09-17T16:45:33;9.98;;;2.50;;
49392;SDS011;35268;42.642;23.308;2022-09-17T16:48:02;5.38;;;2.15;;
49392;SDS011;35268;42.642;23.308;2022-09-17T16:50:28;8.32;;;2.28;;
49392;SDS011;35268;42.642;23.308;2022-09-17T16:52:54;6.78;;;2.33;;
49392;SDS011;35268;42.642;23.308;2022-09-17T16:55:19;5.38;;;2.03;;
49392;SDS011;35268;42.642;23.308;2022-09-17T16:57:46;5.75;;;2.22;;
49392;SDS011;35268;42.642;23.308;2022-09-17T17:00:13;9.13;;;2.33;;
49392;SDS011;35268;42.642;23.308;2022-09-17T17:02:42;12.93;;;1.95;;
49392;SDS011;35268;42.642;23.308;2022-09-17T17:05:08;25.60;;;2.50;;
49392;SDS011;35268;42.642;23.308;2022-09-17T17:07:37;5.20;;;1.88;;
49392;SDS011;35268;42.642;23.308;2022-09-17T17:10:04;4.53;;;1.98;;
49392;SDS011;35268;42.642;23.308;2022-09-17T17:12:33;5.47;;;1.15;;
49392;SDS011;35268;42.642;23.308;2022-09-17T17:14:59;2.72;;;1.60;;
49392;SDS011;35268;42.642;23.308;2022-09-17T17:17:29;13.93;;;4.53;;
49392;SDS011;35268;42.642;23.308;2022-09-17T17:19:54;18.98;;;5.90;;
49392;SDS011;35268;42.642;23.308;2022-09-17T17:22:20;7.93;;;3.58;;
49392;SDS011;35268;42.642;23.308;2022-09-17T17:24:45;9.23;;;3.35;;
49392;SDS011;35268;42.642;23.308;2022-09-17T17:27:11;5.93;;;2.22;;
49392;SDS011;35268;42.642;23.308;2022-09-17T17:29:38;8.35;;;2.28;;
49392;SDS011;35268;42.642;23.308;2022-09-17T17:32:03;7.68;;;1.77;;
49392;SDS011;35268;42.642;23.308;2022-09-17T17:34:29;7.85;;;2.30;;
49392;SDS011;35268;42.642;23.308;2022-09-17T17:36:55;4.50;;;2.25;;
49392;SDS011;35268;42.642;23.308;2022-09-17T17:39:21;5.38;;;2.17;;
49392;SDS011;35268;42.642;23.308;2022-09-17T17:41:47;5.63;;;3.15;;
49392;SDS011;35268;42.642;23.308;2022-09-17T17:44:12;6.07;;;2.80;;
49392;SDS011;35268;42.642;23.308;2022-09-17T17:46:38;10.27;;;2.47;;
49392;SDS011;35268;42.642;23.308;2022-09-17T17:49:04;4.05;;;1.90;;
49392;SDS011;35268;42.642;23.308;2022-09-17T17:51:30;6.90;;;1.98;;
49392;SDS011;35268;42.642;23.308;2022-09-17T17:53:56;5.18;;;1.65;;
49392;SDS011;35268;42.642;23.308;2022-09-17T17:56:21;4.63;;;1.90;;
49392;SDS011;35268;42.642;23.308;2022-09-17T17:58:47;9.13;;;2.38;;
49392;SDS011;35268;42.642;23.308;2022-09-17T18:01:18;3.60;;;2.40;;
49392;SDS011;35268;42.642;23.308;2022-09-17T18:03:45;5.15;;;2.15;;
49392;SDS011;35268;42.642;23.308;2022-09-17T18:06:11;10.43;;;2.22;;
49392;SDS011;35268;42.642;23.308;2022-09-17T18:08:37;8.40;;;2.83;;
49392;SDS011;35268;42.642;23.308;2022-09-17T18:11:04;6.38;;;2.30;;
49392;SDS011;35268;42.642;23.308;2022-09-17T18:13:32;5.15;;;2.10;;
49392;SDS011;35268;42.642;23.308;2022-09-17T18:16:02;12.27;;;4.00;;
49392;SDS011;35268;42.642;23.308;2022-09-17T18:18:30;8.90;;;2.25;;
49392;SDS011;35268;42.642;23.308;2022-09-17T18:21:06;11.52;;;2.53;;
49392;SDS011;35268;42.642;23.308;2022-09-17T18:23:34;4.65;;;2.00;;
49392;SDS011;35268;42.642;23.308;2022-09-17T18:26:02;9.02;;;2.67;;
49392;SDS011;35268;42.642;23.308;2022-09-17T18:28:29;7.13;;;1.83;;
49392;SDS011;35268;42.642;23.308;2022-09-17T18:33:33;9.07;;;1.85;;
49392;SDS011;35268;42.642;23.308;2022-09-17T18:36:02;5.95;;;2.20;;
49392;SDS011;35268;42.642;23.308;2022-09-17T18:38:29;5.60;;;2.05;;
49392;SDS011;35268;42.642;23.308;2022-09-17T18:40:55;12.70;;;4.13;;
49392;SDS011;35268;42.642;23.308;2022-09-17T18:43:26;4.88;;;1.92;;
49392;SDS011;35268;42.642;23.308;2022-09-17T18:45:52;6.75;;;2.10;;
49392;SDS011;35268;42.642;23.308;2022-09-17T18:48:19;3.33;;;1.88;;